Time;durP1;ratioP1;P1;durP2;ratioP2;P2;SDS_P1;SDS_P2;PMS_P1;PMS_P2;Temp;Humidity;BMP_temperature;BMP_pressure;BME280_temperature;BME280_humidity;BME280_pressure;Samples;Min_cycle;Max_cycle;Signal;HPM_P1;HPM_P2
2021/03/06 00:00:08;;;;;;;11.98;9.32;;;;;;;25.77;12.24;94553.78;5076665;28;20055;-46
2021/03/06 00:02:35;;;;;;;15.60;10.00;;;;;;;25.88;12.53;94550.34;5075766;28;20044;-45
2021/03/06 00:05:03;;;;;;;11.90;9.40;;;;;;;24.77;13.18;94554.38;5076577;28;20047;-45
2021/03/06 00:07:30;;;;;;;14.70;9.30;;;;;;;24.97;12.84;94552.94;5070748;28;20059;-50
2021/03/06 00:09:57;;;;;;;14.05;9.40;;;;;;;24.62;13.38;94548.13;5057074;28;20055;-46
2021/03/06 00:12:24;;;;;;;14.13;10.05;;;;;;;25.52;12.62;94550.22;5066249;28;20051;-48
2021/03/06 00:14:52;;;;;;;14.07;9.60;;;;;;;25.29;13.12;94555.09;5076970;28;20044;-49
2021/03/06 00:17:19;;;;;;;12.85;9.63;;;;;;;25.16;13.25;94560.75;5076561;28;20447;-46
2021/03/06 00:19:46;;;;;;;14.32;10.02;;;;;;;25.61;13.00;94564.00;5076767;28;20044;-48
2021/03/06 00:22:14;;;;;;;16.92;10.35;;;;;;;24.86;13.22;94563.59;5076099;28;20044;-48
2021/03/06 00:24:41;;;;;;;13.38;9.15;;;;;;;24.54;13.68;94555.34;5096319;28;20048;-46
2021/03/06 00:27:08;;;;;;;13.23;9.20;;;;;;;24.63;13.88;94564.94;5095752;28;20361;-46
2021/03/06 00:29:35;;;;;;;14.93;10.02;;;;;;;24.80;13.65;94561.63;5057499;28;20056;-46
2021/03/06 00:32:02;;;;;;;13.35;9.43;;;;;;;25.10;13.53;94559.56;5061426;28;20052;-46
2021/03/06 00:34:30;;;;;;;11.25;9.65;;;;;;;24.50;14.17;94561.78;5077910;28;20043;-45
2021/03/06 00:36:57;;;;;;;13.98;10.05;;;;;;;25.12;13.64;94559.94;5095993;28;20464;-46
2021/03/06 00:39:24;;;;;;;12.98;10.18;;;;;;;25.16;14.21;94566.09;5095820;28;20054;-49
2021/03/06 00:41:51;;;;;;;14.07;9.57;;;;;;;25.16;14.00;94563.41;5095743;28;20052;-45
2021/03/06 00:44:18;;;;;;;15.40;10.32;;;;;;;24.52;14.60;94560.28;5096146;28;20044;-46
2021/03/06 00:46:45;;;;;;;19.60;10.55;;;;;;;25.13;14.41;94561.50;5096212;28;20052;-46
2021/03/06 00:49:18;;;;;;;12.73;10.43;;;;;;;25.10;14.27;94562.25;5095388;28;20454;-47
2021/03/06 00:51:46;;;;;;;15.27;11.10;;;;;;;24.56;14.96;94561.06;5096243;28;20056;-49
2021/03/06 00:54:18;;;;;;;13.65;10.52;;;;;;;24.54;14.99;94557.25;5078566;28;20051;-49
2021/03/06 00:56:46;;;;;;;12.45;10.45;;;;;;;24.66;15.00;94554.28;5078501;28;20032;-49
2021/03/06 00:59:15;;;;;;;14.68;10.57;;;;;;;24.12;15.60;94554.94;5077750;28;20059;-45
2021/03/06 01:01:42;;;;;;;14.55;10.75;;;;;;;24.26;15.41;94557.75;5095858;28;20040;-46
2021/03/06 01:04:10;;;;;;;16.17;10.95;;;;;;;24.21;15.75;94552.75;5095388;28;20051;-47
2021/03/06 01:06:37;;;;;;;13.88;10.95;;;;;;;24.59;15.14;94548.88;5096025;28;20048;-46
2021/03/06 01:09:05;;;;;;;15.73;11.13;;;;;;;24.70;15.21;94548.94;5096021;28;20048;-45
2021/03/06 01:11:32;;;;;;;15.55;11.68;;;;;;;25.19;14.94;94554.63;5095729;28;20044;-46
2021/03/06 01:13:59;;;;;;;13.70;11.40;;;;;;;24.54;15.44;94547.31;5096087;28;20079;-49
2021/03/06 01:16:26;;;;;;;17.25;11.10;;;;;;;24.83;14.99;94552.88;5095884;28;20055;-49
2021/03/06 01:18:54;;;;;;;14.63;11.00;;;;;;;24.77;15.42;94549.00;5095817;28;20052;-46
2021/03/06 01:21:32;;;;;;;13.32;10.93;;;;;;;25.08;15.09;94545.81;5095691;28;20048;-46
2021/03/06 01:24:00;;;;;;;16.33;11.52;;;;;;;24.84;15.10;94549.06;5095752;28;20059;-48
2021/03/06 01:26:27;;;;;;;16.23;11.40;;;;;;;24.98;14.93;94545.69;5095732;28;20051;-47
2021/03/06 01:28:54;;;;;;;17.20;11.30;;;;;;;25.43;14.68;94542.53;5084121;28;20052;-49
2021/03/06 01:31:21;;;;;;;17.05;11.55;;;;;;;24.58;15.27;94547.34;5037926;28;20048;-48
2021/03/06 01:33:48;;;;;;;13.18;10.77;;;;;;;24.89;15.19;94551.38;5073608;28;20055;-46
2021/03/06 01:36:15;;;;;;;14.20;11.48;;;;;;;24.42;15.74;94544.91;5073608;28;20052;-45
2021/03/06 01:38:42;;;;;;;14.65;11.43;;;;;;;24.82;15.01;94546.00;5055181;28;20049;-46
2021/03/06 01:41:09;;;;;;;13.70;11.07;;;;;;;24.96;14.84;94550.66;5055420;28;20333;-46
2021/03/06 01:43:37;;;;;;;13.05;11.30;;;;;;;24.90;15.16;94547.56;5071434;28;20044;-46
2021/03/06 01:46:04;;;;;;;14.02;11.13;;;;;;;24.40;15.88;94557.13;5095475;28;20055;-47
2021/03/06 01:48:31;;;;;;;14.52;11.20;;;;;;;24.46;15.86;94556.44;5077874;28;20060;-46
2021/03/06 01:50:58;;;;;;;13.70;11.38;;;;;;;24.59;15.57;94549.66;5095653;28;20056;-45
2021/03/06 01:53:25;;;;;;;12.43;10.85;;;;;;;24.71;15.46;94553.16;5072794;28;20059;-47
2021/03/06 01:55:52;;;;;;;14.55;11.25;;;;;;;24.81;15.33;94555.16;5075283;28;20044;-48
2021/03/06 01:58:20;;;;;;;15.52;11.18;;;;;;;24.55;15.50;94559.53;5077079;28;20054;-45
2021/03/06 02:00:47;;;;;;;16.73;12.10;;;;;;;24.27;15.81;94556.59;5095206;28;20454;-49
2021/03/06 02:03:14;;;;;;;15.15;11.65;;;;;;;24.23;15.92;94550.47;5082113;28;20044;-48
2021/03/06 02:05:44;;;;;;;15.43;11.55;;;;;;;24.15;15.99;94552.28;5074491;28;20387;-45
2021/03/06 02:08:11;;;;;;;17.05;12.00;;;;;;;23.65;16.54;94551.00;5094484;28;20375;-47
2021/03/06 02:10:42;;;;;;;12.25;10.48;;;;;;;24.28;16.04;94560.84;5094690;28;20063;-47
2021/03/06 02:13:18;;;;;;;14.77;11.35;;;;;;;24.17;16.07;94558.03;5076778;28;20045;-46
2021/03/06 02:16:15;;;;;;;13.15;10.82;;;;;;;24.33;15.98;94557.06;5095078;28;20044;-47
2021/03/06 02:18:55;;;;;;;14.75;11.63;;;;;;;23.93;16.35;94551.31;5094962;28;20385;-49
2021/03/06 02:21:44;;;;;;;17.45;11.43;;;;;;;23.89;16.32;94561.19;5076772;28;20489;-48
2021/03/06 02:24:26;;;;;;;15.20;11.85;;;;;;;24.25;16.20;94556.22;5094618;28;20052;-47
2021/03/06 02:27:14;;;;;;;14.20;11.90;;;;;;;23.79;16.55;94553.06;5094272;28;20458;-48
2021/03/06 02:29:42;;;;;;;16.70;11.10;;;;;;;23.48;16.87;94556.88;5095000;28;20369;-49
2021/03/06 02:32:14;;;;;;;15.00;12.00;;;;;;;23.85;16.72;94552.38;5069820;28;20520;-45
2021/03/06 02:34:51;;;;;;;14.35;11.25;;;;;;;23.10;17.38;94553.34;5074382;28;20049;-46
2021/03/06 02:37:21;;;;;;;13.63;11.50;;;;;;;23.26;17.34;94555.84;5074074;28;20048;-46
2021/03/06 02:39:51;;;;;;;17.33;12.07;;;;;;;23.79;17.13;94553.84;5074299;28;20062;-47
2021/03/06 02:42:25;;;;;;;14.95;11.30;;;;;;;23.51;17.04;94556.16;5075862;28;20044;-44
2021/03/06 02:44:53;;;;;;;13.48;11.43;;;;;;;23.20;17.50;94558.06;5094848;28;20044;-47
2021/03/06 02:47:20;;;;;;;13.75;11.32;;;;;;;24.18;16.26;94562.22;5093753;28;20358;-45
2021/03/06 02:49:54;;;;;;;16.85;11.85;;;;;;;23.16;17.44;94562.59;5077060;28;20044;-47
2021/03/06 02:52:22;;;;;;;14.60;11.45;;;;;;;23.26;17.28;94561.94;5094537;28;20050;-48
2021/03/06 02:54:49;;;;;;;15.52;11.50;;;;;;;23.20;17.44;94563.41;5094903;28;20043;-48
2021/03/06 02:57:33;;;;;;;14.25;11.07;;;;;;;23.89;16.81;94571.88;5094251;28;20039;-48
2021/03/06 03:00:03;;;;;;;13.68;11.18;;;;;;;23.22;17.51;94577.16;5077251;28;20052;-47
2021/03/06 03:02:53;;;;;;;15.77;11.73;;;;;;;23.41;17.24;94573.56;5083211;28;20120;-47
2021/03/06 03:05:50;;;;;;;14.32;11.35;;;;;;;23.15;17.55;94576.25;5093946;28;20059;-48
2021/03/06 03:08:31;;;;;;;16.98;12.38;;;;;;;23.10;17.83;94577.34;5094591;28;20071;-45
2021/03/06 03:11:02;;;;;;;15.60;11.70;;;;;;;23.39;17.13;94579.25;5094774;28;20044;-46
2021/03/06 03:13:37;;;;;;;14.10;11.13;;;;;;;23.26;17.69;94590.53;5096934;28;20072;-49
2021/03/06 03:16:36;;;;;;;18.92;11.75;;;;;;;23.54;17.29;94587.44;5098364;28;20036;-47
2021/03/06 03:19:34;;;;;;;19.85;12.48;;;;;;;22.96;17.76;94595.81;5076612;28;20059;-45
2021/03/06 03:22:03;;;;;;;16.95;12.85;;;;;;;22.97;17.87;94597.34;5008301;28;20476;-46
2021/03/06 03:24:34;;;;;;;16.92;12.43;;;;;;;23.17;17.50;94603.38;5080240;28;20048;-44
2021/03/06 03:27:11;;;;;;;15.80;12.23;;;;;;;23.10;17.63;94601.34;5079922;28;20044;-48
2021/03/06 03:29:40;;;;;;;15.60;12.43;;;;;;;23.66;17.22;94605.91;5080117;28;20063;-44
2021/03/06 03:32:10;;;;;;;17.80;12.50;;;;;;;23.10;17.74;94606.69;5097673;28;20044;-46
2021/03/06 03:34:38;;;;;;;16.83;11.98;;;;;;;22.85;17.95;94608.97;5091845;28;20052;-45
2021/03/06 03:37:08;;;;;;;14.68;11.82;;;;;;;22.87;17.80;94609.38;5097822;28;20044;-45
2021/03/06 03:39:36;;;;;;;13.25;10.98;;;;;;;23.01;17.81;94609.59;5097706;28;20051;-48
2021/03/06 03:42:05;;;;;;;15.07;11.75;;;;;;;22.75;18.15;94614.88;5097747;28;20056;-48
2021/03/06 03:44:34;;;;;;;16.38;12.40;;;;;;;23.12;17.73;94612.41;5097828;28;20043;-44
2021/03/06 03:47:01;;;;;;;15.43;11.38;;;;;;;23.20;17.76;94607.97;5079539;28;20044;-45
2021/03/06 03:49:28;;;;;;;14.40;11.75;;;;;;;22.76;18.26;94619.84;5079747;28;20082;-46
2021/03/06 03:51:56;;;;;;;14.50;11.40;;;;;;;22.54;18.21;94622.53;5079886;28;20340;-45
2021/03/06 03:54:23;;;;;;;19.23;12.32;;;;;;;23.11;17.94;94626.88;5079465;28;20044;-45
2021/03/06 03:56:50;;;;;;;14.02;12.02;;;;;;;22.73;18.46;94633.91;5079747;28;20055;-45
2021/03/06 03:59:17;;;;;;;16.05;11.95;;;;;;;22.76;18.48;94627.84;5079105;28;20051;-46
2021/03/06 04:01:46;;;;;;;16.83;12.30;;;;;;;23.26;18.13;94636.63;5097348;28;20442;-51
2021/03/06 04:04:28;;;;;;;15.80;12.25;;;;;;;23.32;17.95;94635.19;5097143;28;20469;-46
2021/03/06 04:06:56;;;;;;;15.25;12.13;;;;;;;22.67;18.69;94646.00;5097127;28;20358;-47
2021/03/06 04:09:23;;;;;;;15.18;11.48;;;;;;;23.32;18.08;94645.84;5097239;28;20044;-46
2021/03/06 04:11:51;;;;;;;15.52;12.20;;;;;;;23.49;17.85;94649.13;5097345;28;20052;-45
2021/03/06 04:14:18;;;;;;;14.73;12.10;;;;;;;22.99;18.63;94659.09;5096846;28;20043;-44
2021/03/06 04:16:47;;;;;;;14.13;11.95;;;;;;;23.02;18.44;94655.69;5097128;28;20044;-47
2021/03/06 04:19:14;;;;;;;17.40;11.80;;;;;;;22.68;18.84;94655.53;5096894;28;20370;-47
2021/03/06 04:21:41;;;;;;;15.18;11.80;;;;;;;22.38;19.47;94663.38;5096952;28;20052;-46
2021/03/06 04:24:08;;;;;;;14.70;12.73;;;;;;;23.15;18.52;94653.59;5096611;28;20040;-49
2021/03/06 04:26:35;;;;;;;14.75;12.25;;;;;;;23.32;18.59;94656.53;5096928;28;20047;-48
2021/03/06 04:29:03;;;;;;;14.93;11.77;;;;;;;22.76;19.24;94656.41;5078646;28;20048;-47
2021/03/06 04:31:30;;;;;;;14.02;11.55;;;;;;;22.83;19.42;94653.09;5096795;28;20047;-46
2021/03/06 04:33:57;;;;;;;14.30;12.10;;;;;;;22.83;19.21;94661.88;5082297;28;20056;-47
2021/03/06 04:36:24;;;;;;;15.20;11.75;;;;;;;23.44;18.66;94662.78;5076621;28;20044;-47
2021/03/06 04:38:51;;;;;;;19.05;12.93;;;;;;;22.97;19.24;94659.44;5078750;28;20043;-49
2021/03/06 04:41:18;;;;;;;13.45;12.02;;;;;;;23.24;19.00;94664.78;5096401;28;20048;-45
2021/03/06 04:43:45;;;;;;;16.95;13.32;;;;;;;22.91;19.36;94665.44;5096231;28;20043;-46
2021/03/06 04:46:12;;;;;;;17.30;12.95;;;;;;;23.09;19.24;94669.13;5096445;28;20048;-47
2021/03/06 04:48:39;;;;;;;15.73;12.35;;;;;;;23.29;18.75;94667.91;5096140;28;20343;-47
2021/03/06 04:51:06;;;;;;;14.02;12.52;;;;;;;23.33;18.61;94671.41;5096524;28;20055;-48
2021/03/06 04:53:34;;;;;;;17.40;13.23;;;;;;;22.93;19.42;94677.28;5096041;28;20451;-48
2021/03/06 04:56:01;;;;;;;16.00;13.27;;;;;;;23.11;19.04;94671.44;5096360;28;20044;-45
2021/03/06 04:58:28;;;;;;;14.60;12.40;;;;;;;23.18;19.27;94683.00;5095588;28;20047;-47
2021/03/06 05:00:55;;;;;;;15.05;12.98;;;;;;;23.13;19.35;94680.63;5096310;28;20362;-45
2021/03/06 05:03:22;;;;;;;16.85;13.70;;;;;;;23.33;19.18;94687.41;5095287;28;20044;-46
2021/03/06 05:05:50;;;;;;;17.38;13.13;;;;;;;23.15;19.41;94698.91;5095590;28;20496;-47
2021/03/06 05:08:17;;;;;;;15.35;13.43;;;;;;;22.86;19.67;94697.69;5095975;28;20055;-49
2021/03/06 05:10:44;;;;;;;17.13;13.20;;;;;;;23.55;19.02;94711.72;5096001;28;20048;-49
2021/03/06 05:13:11;;;;;;;17.88;14.70;;;;;;;23.93;18.49;94700.81;5095982;28;20040;-47
2021/03/06 05:15:38;;;;;;;20.48;15.63;;;;;;;23.33;19.37;94724.75;5095673;28;20055;-46
2021/03/06 05:18:05;;;;;;;17.80;15.55;;;;;;;23.42;19.54;94726.38;5095698;28;20040;-45
2021/03/06 05:20:32;;;;;;;19.63;15.35;;;;;;;22.44;20.79;94738.44;5095841;28;20048;-46
2021/03/06 05:22:59;;;;;;;22.83;16.05;;;;;;;22.99;20.12;94749.72;5095849;28;20044;-44
2021/03/06 05:25:26;;;;;;;20.08;17.67;;;;;;;22.92;20.60;94752.28;5095510;28;20043;-45
2021/03/06 05:27:54;;;;;;;19.90;17.75;;;;;;;22.48;20.93;94768.56;5089713;28;20044;-45
2021/03/06 05:30:23;;;;;;;20.05;17.58;;;;;;;22.82;21.23;94766.94;5055578;28;20049;-46
2021/03/06 05:32:50;;;;;;;21.10;18.17;;;;;;;23.25;21.12;94773.00;5055477;28;20482;-47
2021/03/06 05:35:17;;;;;;;21.85;19.30;;;;;;;22.33;22.12;94766.75;5059018;28;20047;-48
2021/03/06 05:37:45;;;;;;;25.48;21.25;;;;;;;22.73;21.61;94775.13;5075413;28;20036;-49
2021/03/06 05:40:12;;;;;;;31.52;21.02;;;;;;;22.18;22.80;94772.91;5075522;28;20048;-45
2021/03/06 05:42:39;;;;;;;23.83;21.27;;;;;;;21.90;23.21;94765.84;5095579;28;20048;-48
2021/03/06 05:45:10;;;;;;;23.55;20.25;;;;;;;22.44;22.55;94776.50;5095283;28;20047;-48
2021/03/06 05:47:37;;;;;;;23.83;20.13;;;;;;;22.63;22.54;94780.25;5095244;28;20447;-48
2021/03/06 05:50:06;;;;;;;23.40;20.52;;;;;;;22.32;23.07;94784.59;5095722;28;20051;-45
2021/03/06 05:52:33;;;;;;;25.95;20.92;;;;;;;22.00;23.41;94791.91;5095559;28;20043;-47
2021/03/06 05:55:01;;;;;;;23.85;20.58;;;;;;;21.96;23.86;94803.59;5095261;28;20504;-44
2021/03/06 05:57:29;;;;;;;24.00;19.52;;;;;;;21.60;24.36;94810.81;5076998;28;20369;-48
2021/03/06 05:59:56;;;;;;;22.42;18.52;;;;;;;22.18;23.47;94818.19;5095434;28;20052;-46
2021/03/06 06:02:24;;;;;;;19.30;17.08;;;;;;;21.76;23.86;94818.75;5055045;28;20052;-44
2021/03/06 06:04:51;;;;;;;15.80;14.10;;;;;;;22.29;23.07;94829.81;5036986;28;20052;-46
2021/03/06 06:07:18;;;;;;;16.73;12.82;;;;;;;21.33;24.35;94839.00;5073955;28;20052;-46
2021/03/06 06:09:46;;;;;;;12.32;11.13;;;;;;;21.63;23.74;94841.25;5074640;28;20055;-47
2021/03/06 06:12:13;;;;;;;12.05;10.23;;;;;;;20.85;24.39;94840.81;5074105;28;20359;-47
2021/03/06 06:14:41;;;;;;;9.82;8.80;;;;;;;21.08;24.11;94848.22;5074851;28;20053;-45
2021/03/06 06:17:09;;;;;;;9.55;8.65;;;;;;;20.73;24.14;94870.06;5074557;28;20052;-45
2021/03/06 06:19:38;;;;;;;9.63;8.73;;;;;;;20.48;24.54;94866.72;5074788;28;20052;-45
2021/03/06 06:22:22;;;;;;;11.02;9.60;;;;;;;20.80;24.07;94883.53;5062845;28;20047;-48
2021/03/06 06:24:52;;;;;;;9.60;8.60;;;;;;;21.34;23.29;94893.75;5054932;28;20048;-45
2021/03/06 06:27:24;;;;;;;9.15;8.25;;;;;;;20.50;24.26;94903.56;5077363;28;20055;-48
2021/03/06 06:29:51;;;;;;;9.18;8.10;;;;;;;20.60;24.00;94913.72;5095013;28;20044;-44
2021/03/06 06:32:21;;;;;;;9.07;7.72;;;;;;;21.02;23.56;94908.03;5095192;28;20055;-48
2021/03/06 06:35:00;;;;;;;8.70;7.78;;;;;;;21.15;23.33;94926.28;5089414;28;20060;-47
2021/03/06 06:37:32;;;;;;;7.93;7.13;;;;;;;21.45;22.77;94931.25;5075970;28;20052;-49
2021/03/06 06:40:00;;;;;;;7.85;7.05;;;;;;;21.40;22.51;94945.56;5094408;28;20053;-44
2021/03/06 06:42:36;;;;;;;6.65;6.03;;;;;;;21.18;22.86;94948.75;5094373;28;20062;-47
2021/03/06 06:45:04;;;;;;;6.50;5.90;;;;;;;21.16;22.48;94950.97;5093827;28;20055;-47
2021/03/06 06:47:39;;;;;;;7.13;5.13;;;;;;;20.35;22.99;94967.97;5094454;28;20044;-48
2021/03/06 06:50:08;;;;;;;5.35;4.85;;;;;;;21.16;21.74;94973.00;5093790;28;20457;-46
2021/03/06 06:52:41;;;;;;;4.90;4.40;;;;;;;21.32;21.73;94981.06;5098239;28;20052;-44
2021/03/06 06:55:10;;;;;;;4.95;4.30;;;;;;;21.62;21.48;94988.69;5088201;28;20051;-44
2021/03/06 06:57:51;;;;;;;5.07;4.57;;;;;;;21.60;21.66;95006.84;5097549;28;20052;-45
2021/03/06 07:00:20;;;;;;;4.82;4.32;;;;;;;21.55;21.48;95000.69;5096655;28;20421;-45
2021/03/06 07:02:55;;;;;;;5.30;4.65;;;;;;;22.28;20.40;95015.47;5058912;28;20343;-47
2021/03/06 07:05:40;;;;;;;5.55;4.53;;;;;;;21.31;21.44;95016.72;5095716;28;20052;-46
2021/03/06 07:08:20;;;;;;;4.55;4.07;;;;;;;21.26;21.75;95029.50;5075883;28;20036;-43
2021/03/06 07:10:47;;;;;;;5.60;4.45;;;;;;;20.96;21.89;95029.78;5091014;28;20047;-47
2021/03/06 07:13:15;;;;;;;4.82;4.05;;;;;;;20.82;21.91;95032.78;5097255;28;20048;-44
2021/03/06 07:15:43;;;;;;;8.48;6.95;;;;;;;21.62;21.23;95031.25;5095532;28;20058;-47
2021/03/06 07:18:16;;;;;;;10.35;7.85;;;;;;;20.89;21.92;95042.84;5097320;28;20039;-45
2021/03/06 07:20:45;;;;;;;16.80;12.25;;;;;;;20.72;21.98;95049.19;5080087;28;20052;-45
2021/03/06 07:23:19;;;;;;;7.10;5.20;;;;;;;21.22;21.42;95048.75;5076615;28;20055;-44
2021/03/06 07:25:50;;;;;;;4.70;3.70;;;;;;;20.94;21.50;95056.69;5083562;28;20044;-48
2021/03/06 07:28:17;;;;;;;3.58;3.25;;;;;;;20.40;22.15;95069.44;5082298;28;20040;-46
2021/03/06 07:30:45;;;;;;;4.72;3.65;;;;;;;19.78;23.18;95072.25;5082124;28;20055;-47
2021/03/06 07:33:16;;;;;;;5.05;4.20;;;;;;;20.75;22.06;95075.06;5097330;28;20055;-44
2021/03/06 07:35:44;;;;;;;4.07;3.40;;;;;;;20.66;22.08;95087.72;5096404;28;20382;-48
2021/03/06 07:38:16;;;;;;;4.82;3.50;;;;;;;20.96;21.68;95090.13;5097656;28;20044;-45
2021/03/06 07:40:53;;;;;;;3.63;3.15;;;;;;;20.39;22.37;95083.78;5097420;28;20044;-52
2021/03/06 07:43:29;;;;;;;4.00;3.17;;;;;;;20.82;21.91;95095.78;5070523;28;20060;-49
2021/03/06 07:45:58;;;;;;;8.35;6.78;;;;;;;20.09;22.70;95091.16;5057353;28;20060;-46
2021/03/06 07:48:42;;;;;;;9.30;6.95;;;;;;;19.78;23.30;95096.94;5057366;28;20049;-46
2021/03/06 07:51:09;;;;;;;4.78;3.80;;;;;;;19.84;23.34;95102.78;5062979;28;20059;-45
2021/03/06 07:53:36;;;;;;;4.13;3.20;;;;;;;19.06;24.29;95101.50;5058082;28;20045;-47
2021/03/06 07:56:07;;;;;;;4.43;3.38;;;;;;;19.60;24.51;95103.47;5072882;28;20387;-46
2021/03/06 07:58:51;;;;;;;4.47;3.53;;;;;;;19.34;24.84;95109.72;5086009;28;20374;-45
2021/03/06 08:01:27;;;;;;;4.63;3.38;;;;;;;18.99;24.88;95106.50;5063594;28;20052;-46
2021/03/06 08:03:54;;;;;;;3.80;3.40;;;;;;;19.00;24.61;95113.38;5076967;28;20047;-48
2021/03/06 08:06:29;;;;;;;4.55;3.83;;;;;;;18.95;24.36;95112.78;5076977;28;20040;-49
2021/03/06 08:09:04;;;;;;;3.90;3.13;;;;;;;18.61;24.60;95119.00;5076911;28;20048;-48
2021/03/06 08:11:33;;;;;;;5.18;3.55;;;;;;;19.13;24.34;95118.75;5076701;28;20063;-49
2021/03/06 08:14:05;;;;;;;5.15;3.25;;;;;;;17.84;25.69;95124.19;5088029;28;20047;-47
2021/03/06 08:16:33;;;;;;;4.95;3.80;;;;;;;20.90;25.95;95135.53;5048719;28;20060;-52
2021/03/06 08:19:12;;;;;;;7.13;4.70;;;;;;;23.26;22.78;95132.72;5056976;28;20049;-49
2021/03/06 08:21:49;;;;;;;6.28;4.53;;;;;;;23.95;22.33;95131.13;5063913;28;20063;-48
2021/03/06 08:24:18;;;;;;;8.23;5.65;;;;;;;25.23;20.83;95137.09;5056706;28;20452;-52
2021/03/06 08:27:09;;;;;;;6.47;5.35;;;;;;;25.94;19.84;95133.47;5056747;28;20053;-49
2021/03/06 08:29:37;;;;;;;7.90;5.65;;;;;;;26.57;19.53;95142.59;5048874;28;20470;-50
2021/03/06 08:32:06;;;;;;;7.03;5.70;;;;;;;26.98;18.83;95146.75;5068634;28;20056;-47
2021/03/06 08:34:52;;;;;;;61.47;46.28;;;;;;;29.17;16.09;95149.88;5060676;28;20048;-54
2021/03/06 08:37:19;;;;;;;24.85;15.30;;;;;;;29.74;15.27;95160.56;5065818;28;20478;-45
2021/03/06 08:40:00;;;;;;;10.18;5.55;;;;;;;30.19;14.60;95152.69;5066549;28;20052;-48
2021/03/06 08:42:37;;;;;;;8.95;5.13;;;;;;;30.46;14.20;95156.44;5071032;28;20059;-45
2021/03/06 08:45:06;;;;;;;6.47;5.10;;;;;;;30.59;14.31;95160.19;5056452;28;20044;-45
2021/03/06 08:47:35;;;;;;;48.75;41.53;;;;;;;31.05;13.64;95164.50;5068710;28;20047;-48
2021/03/06 08:50:08;;;;;;;26.40;18.67;;;;;;;31.15;13.57;95169.03;5057428;28;20045;-47
2021/03/06 08:52:35;;;;;;;11.27;5.57;;;;;;;28.68;15.61;95167.53;5071730;28;20044;-45
2021/03/06 08:55:04;;;;;;;106.18;62.15;;;;;;;28.05;16.06;95168.88;5064144;28;20075;-46
2021/03/06 08:57:38;;;;;;;127.50;74.47;;;;;;;27.58;16.21;95172.47;5065801;28;20362;-49
2021/03/06 09:00:21;;;;;;;51.08;30.48;;;;;;;28.02;15.86;95169.63;5096305;28;20046;-45
2021/03/06 09:02:48;;;;;;;;;;;;;;;27.71;16.12;95170.28;5071470;28;20044;-46
2021/03/06 09:05:19;;;;;;;31.00;19.35;;;;;;;28.81;15.55;95187.53;5056910;28;19913;-57
2021/03/06 09:07:49;;;;;;;19.70;12.60;;;;;;;27.50;16.53;95192.38;5055731;28;20052;-42
2021/03/06 09:10:16;;;;;;;19.45;11.75;;;;;;;28.74;15.79;95182.13;5055045;28;20044;-42
2021/03/06 09:12:44;;;;;;;569.92;483.63;;;;;;;28.85;16.10;95191.00;5104688;28;20044;-46
2021/03/06 09:15:13;;;;;;;104.75;58.63;;;;;;;29.45;15.45;95201.03;5093736;28;20064;-44
2021/03/06 09:17:41;;;;;;;145.05;103.07;;;;;;;30.83;12.52;95198.22;5055614;28;20052;-43
2021/03/06 09:20:09;;;;;;;19.67;15.13;;;;;;;27.59;14.42;95201.66;5042267;28;20359;-45
2021/03/06 09:22:47;;;;;;;11.18;8.32;;;;;;;24.69;17.84;95199.66;5064906;28;20049;-46
2021/03/06 09:25:14;;;;;;;11.80;7.53;;;;;;;25.33;17.73;95209.53;5055262;28;20041;-51
2021/03/06 09:27:46;;;;;;;10.35;7.07;;;;;;;25.65;17.34;95207.28;5068280;28;20450;-54
2021/03/06 09:30:24;;;;;;;7.50;5.93;;;;;;;25.97;17.24;95215.00;5077967;28;20054;-48
2021/03/06 09:32:51;;;;;;;10.90;6.63;;;;;;;26.17;17.23;95211.03;5064894;28;20063;-52
2021/03/06 09:35:20;;;;;;;11.10;6.93;;;;;;;26.41;17.31;95209.81;5055323;28;20443;-51
2021/03/06 09:38:02;;;;;;;9.10;6.63;;;;;;;25.88;17.70;95209.16;5065446;28;20040;-47
2021/03/06 09:40:35;;;;;;;8.52;6.25;;;;;;;26.25;17.72;95222.59;5081231;28;20114;-51
2021/03/06 09:43:02;;;;;;;7.20;5.80;;;;;;;26.58;17.07;95208.47;5066072;28;20396;-51
2021/03/06 09:45:29;;;;;;;7.93;5.80;;;;;;;27.03;16.53;95210.81;5070179;28;20041;-52
2021/03/06 09:48:15;;;;;;;8.30;5.95;;;;;;;26.84;16.67;95211.03;5077042;28;20036;-51
2021/03/06 09:50:46;;;;;;;8.23;5.18;;;;;;;27.68;16.37;95214.00;5087625;28;20057;-49
2021/03/06 09:53:18;;;;;;;9.40;8.48;;;;;;;27.64;16.03;95204.00;5055252;28;20056;-51
2021/03/06 09:55:46;;;;;;;7.90;7.03;;;;;;;27.97;15.92;95210.31;5047492;28;20052;-52
2021/03/06 09:58:21;;;;;;;6.07;5.38;;;;;;;27.90;15.64;95210.28;5054898;28;20044;-55
2021/03/06 10:00:50;;;;;;;7.15;4.97;;;;;;;27.71;15.88;95218.63;5070342;28;20041;-51
2021/03/06 10:03:31;;;;;;;6.43;5.20;;;;;;;27.82;15.52;95227.50;5061733;28;20049;-52
2021/03/06 10:06:01;;;;;;;8.00;5.15;;;;;;;28.46;15.29;95225.88;5061052;28;20044;-52
2021/03/06 10:08:30;;;;;;;4.78;4.25;;;;;;;27.59;15.41;95227.72;5077106;28;20044;-54
2021/03/06 10:10:58;;;;;;;4.53;3.85;;;;;;;26.92;15.42;95228.72;5062737;28;20325;-50
2021/03/06 10:13:25;;;;;;;4.80;3.83;;;;;;;26.27;16.19;95220.34;5057478;28;20351;-51
2021/03/06 10:15:54;;;;;;;4.80;4.30;;;;;;;26.38;16.26;95229.31;5066762;28;20055;-48
2021/03/06 10:18:21;;;;;;;4.57;4.00;;;;;;;25.52;16.89;95230.84;5069307;28;20053;-50
2021/03/06 10:20:49;;;;;;;6.07;4.03;;;;;;;24.98;17.17;95233.75;5071664;28;20048;-51
2021/03/06 10:23:33;;;;;;;4.75;3.90;;;;;;;24.72;17.43;95233.69;5074907;28;20048;-51
2021/03/06 10:26:16;;;;;;;5.25;4.10;;;;;;;25.00;17.12;95231.56;5029595;28;20056;-51
2021/03/06 10:28:44;;;;;;;4.22;3.78;;;;;;;24.59;17.04;95233.09;5074403;28;20049;-52
2021/03/06 10:31:31;;;;;;;5.75;5.00;;;;;;;24.55;17.70;95222.34;5058913;28;20048;-51
2021/03/06 10:34:02;;;;;;;17.58;14.18;;;;;;;24.48;17.65;95238.25;5058820;28;20482;-52
2021/03/06 10:36:29;;;;;;;9.52;8.38;;;;;;;24.33;17.50;95235.66;5073013;28;20353;-52
2021/03/06 10:39:14;;;;;;;6.97;6.20;;;;;;;25.15;16.85;95232.53;5096956;28;20048;-51
2021/03/06 10:41:41;;;;;;;6.10;5.15;;;;;;;24.58;16.54;95221.63;5099084;28;20366;-49
2021/03/06 10:44:08;;;;;;;4.60;4.10;;;;;;;24.31;15.96;95233.31;5070952;28;20050;-51
2021/03/06 10:46:35;;;;;;;4.72;4.22;;;;;;;24.02;16.16;95218.59;5070193;28;20045;-52
2021/03/06 10:49:11;;;;;;;5.18;4.43;;;;;;;24.21;16.34;95233.88;5058909;28;20063;-52
2021/03/06 10:51:53;;;;;;;5.20;4.70;;;;;;;23.71;16.78;95227.50;5073202;28;20067;-50
2021/03/06 10:54:22;;;;;;;11.43;9.63;;;;;;;23.83;16.64;95223.94;5078517;28;20055;-50
2021/03/06 10:57:06;;;;;;;8.98;8.02;;;;;;;24.03;16.32;95217.47;5078301;28;20044;-50
2021/03/06 10:59:35;;;;;;;10.38;7.93;;;;;;;24.75;17.54;95224.97;5060666;28;20455;-49
2021/03/06 11:02:02;;;;;;;19.17;5.90;;;;;;;21.64;18.89;95232.00;5090545;28;20043;-43
2021/03/06 11:04:34;;;;;;;8.82;5.15;;;;;;;20.72;19.34;95237.81;5071051;28;20088;-49
2021/03/06 11:07:05;;;;;;;5.30;4.63;;;;;;;19.41;21.13;95231.16;5063254;28;20048;-46
2021/03/06 11:09:34;;;;;;;7.47;4.93;;;;;;;18.54;21.74;95225.41;5058046;28;20048;-44
2021/03/06 11:12:17;;;;;;;5.80;5.00;;;;;;;18.38;21.79;95226.97;5059191;28;20451;-44
2021/03/06 11:14:44;;;;;;;6.00;5.40;;;;;;;19.05;20.71;95223.72;5073837;28;20049;-46
2021/03/06 11:17:15;;;;;;;5.68;5.00;;;;;;;18.74;21.38;95230.06;5057895;28;20044;-54
2021/03/06 11:19:43;;;;;;;6.53;5.28;;;;;;;18.58;20.59;95220.25;5058063;28;20052;-47
2021/03/06 11:22:13;;;;;;;6.30;5.40;;;;;;;18.66;21.70;95219.47;5065035;28;20055;-47
2021/03/06 11:24:40;;;;;;;6.28;5.55;;;;;;;18.71;20.73;95214.00;5078072;28;20438;-45
2021/03/06 11:27:07;;;;;;;8.30;6.07;;;;;;;18.58;20.89;95220.25;5077797;28;20048;-45
2021/03/06 11:29:34;;;;;;;7.70;5.40;;;;;;;18.75;20.90;95205.13;5077624;28;20048;-45
2021/03/06 11:32:01;;;;;;;6.55;5.03;;;;;;;18.62;20.79;95205.28;5076938;28;20055;-44
2021/03/06 11:34:29;;;;;;;11.13;5.93;;;;;;;18.35;21.43;95201.94;5064018;28;20059;-46
2021/03/06 11:36:56;;;;;;;7.07;5.00;;;;;;;18.47;20.53;95204.69;5057571;28;20476;-45
2021/03/06 11:39:23;;;;;;;7.10;4.78;;;;;;;18.79;19.74;95194.69;5095862;28;20048;-53